Terminal Aerodrome Forecast
Issued by NWS Cleveland, OH

Home | Current Version | Previous Version | Graphics & Text | Print | Product List | Glossary Off
Versions: 1 2 3 4 5 6 7 8 9 10 11 12 13 14 15 16 17

000
FTUS41 KCLE 151500 AAC
TAFCAK
TAF AMD
KCAK 151500Z 1515/1612 00000KT 2SM BR BKN250
     FM151600 VRB03KT 3SM BR BKN250
     FM151800 10003KT 6SM HZ BKN250=

USA.gov is the U.S. government's official web portal to all federal, state and local government web resources and services.